Time;durP1;ratioP1;P1;durP2;ratioP2;P2;SDS_P1;SDS_P2;PMS_P1;PMS_P2;Temp;Humidity;BMP_temperature;BMP_pressure;BME280_temperature;BME280_humidity;BME280_pressure;Samples;Min_cycle;Max_cycle;Signal;HPM_P1;HPM_P2
2021/06/14 00:00:36;;;;;;;0.65;0.50;;;16.90;59.60;;;;;;4995036;28;20052;-85
2021/06/14 00:03:02;;;;;;;1.30;0.77;;;16.80;59.70;;;;;;5013101;28;20373;-84
2021/06/14 00:05:36;;;;;;;0.60;0.60;;;16.80;59.80;;;;;;4995481;28;20046;-85
2021/06/14 00:08:05;;;;;;;1.40;0.80;;;16.80;60.00;;;;;;4976043;28;20048;-84
2021/06/14 00:10:32;;;;;;;0.40;0.40;;;16.70;60.70;;;;;;4976597;28;20092;-85
2021/06/14 00:12:58;;;;;;;0.50;0.40;;;16.60;60.10;;;;;;4978692;28;20113;-84
2021/06/14 00:15:25;;;;;;;0.50;0.40;;;16.60;60.20;;;;;;5012383;28;20060;-85
2021/06/14 00:17:51;;;;;;;0.75;0.50;;;16.60;60.40;;;;;;5013010;28;20049;-84
2021/06/14 00:20:19;;;;;;;0.77;0.50;;;16.50;60.40;;;;;;4993235;28;20140;-84
2021/06/14 00:22:45;;;;;;;0.50;0.50;;;16.50;60.60;;;;;;4978809;28;20034;-84
2021/06/14 00:25:14;;;;;;;1.00;0.50;;;16.40;60.60;;;;;;4994847;28;20057;-84
2021/06/14 00:27:40;;;;;;;1.23;0.50;;;16.40;60.70;;;;;;4994516;28;20053;-84
2021/06/14 00:30:07;;;;;;;0.47;0.47;;;16.30;60.80;;;;;;5010987;28;20100;-84
2021/06/14 00:32:33;;;;;;;0.52;0.50;;;16.30;60.90;;;;;;5009794;28;20431;-84
2021/06/14 00:34:59;;;;;;;0.75;0.60;;;16.30;61.00;;;;;;5012363;28;20096;-84
2021/06/14 00:37:24;;;;;;;0.60;0.50;;;16.20;61.10;;;;;;4994500;28;20233;-84
2021/06/14 00:39:51;;;;;;;0.40;0.40;;;16.20;61.20;;;;;;5011368;28;20042;-85
2021/06/14 00:42:16;;;;;;;0.50;0.50;;;16.20;61.30;;;;;;5012660;28;20046;-84
2021/06/14 00:44:42;;;;;;;0.85;0.50;;;16.10;61.50;;;;;;4978732;28;20518;-85
2021/06/14 00:47:08;;;;;;;0.50;0.50;;;16.10;61.60;;;;;;4994563;28;20042;-84
2021/06/14 00:49:34;;;;;;;0.95;0.55;;;16.00;61.70;;;;;;5012242;28;20031;-84
2021/06/14 00:51:59;;;;;;;0.50;0.50;;;16.10;61.90;;;;;;5012269;28;20121;-85
2021/06/14 00:54:25;;;;;;;0.57;0.50;;;16.00;62.00;;;;;;4994510;28;20048;-84
2021/06/14 00:56:52;;;;;;;0.32;0.32;;;16.00;62.10;;;;;;4994369;28;20034;-84
2021/06/14 00:59:18;;;;;;;0.55;0.50;;;15.90;62.10;;;;;;4994268;28;20100;-85
2021/06/14 01:01:44;;;;;;;0.43;0.43;;;15.90;62.20;;;;;;4994324;28;20050;-84
2021/06/14 01:04:10;;;;;;;0.70;0.60;;;16.00;62.30;;;;;;4978209;28;20516;-84
2021/06/14 01:06:36;;;;;;;0.85;0.50;;;15.80;62.50;;;;;;5008723;28;20128;-84
2021/06/14 01:09:02;;;;;;;0.70;0.50;;;15.90;62.30;;;;;;4994301;28;20122;-83
2021/06/14 01:11:45;;;;;;;0.68;0.60;;;15.90;62.40;;;;;;5011871;28;20104;-83
2021/06/14 01:14:38;;;;;;;0.70;0.40;;;15.80;62.40;;;;;;4992844;28;20038;-83
2021/06/14 01:17:13;;;;;;;0.30;0.30;;;15.90;62.50;;;;;;5010065;28;20083;-83
2021/06/14 01:20:07;;;;;;;0.40;0.40;;;15.80;62.40;;;;;;4992440;28;20042;-83
2021/06/14 01:23:02;;;;;;;0.40;0.40;;;15.80;62.50;;;;;;4977482;28;20404;-83
2021/06/14 01:25:48;;;;;;;0.60;0.50;;;15.80;62.40;;;;;;4996363;28;20068;-83
2021/06/14 01:28:15;;;;;;;0.30;0.30;;;15.80;62.50;;;;;;4980101;28;20053;-83
2021/06/14 01:30:42;;;;;;;0.30;0.30;;;15.80;62.50;;;;;;4997594;28;20046;-83
2021/06/14 01:33:11;;;;;;;0.55;0.45;;;15.70;62.50;;;;;;5011694;28;20042;-83
2021/06/14 01:35:53;;;;;;;0.40;0.40;;;15.80;62.60;;;;;;4981217;28;20428;-83
2021/06/14 01:38:22;;;;;;;0.30;0.30;;;15.80;62.70;;;;;;5014385;28;20049;-83
2021/06/14 01:40:50;;;;;;;0.35;0.35;;;15.70;62.70;;;;;;4997933;28;20042;-82
2021/06/14 01:43:21;;;;;;;0.38;0.30;;;15.70;62.70;;;;;;5013583;28;20037;-83
2021/06/14 01:45:51;;;;;;;0.77;0.40;;;15.70;62.80;;;;;;5013779;28;20113;-83
2021/06/14 01:48:19;;;;;;;0.65;0.50;;;15.70;62.80;;;;;;4997131;28;20045;-82
2021/06/14 01:50:46;;;;;;;0.45;0.40;;;15.70;62.80;;;;;;4980832;28;20041;-83
2021/06/14 01:53:13;;;;;;;0.65;0.40;;;15.70;62.90;;;;;;4995289;28;20468;-83
2021/06/14 01:55:40;;;;;;;0.55;0.40;;;15.70;62.90;;;;;;5015229;28;20042;-83
2021/06/14 01:58:06;;;;;;;0.63;0.63;;;15.70;63.10;;;;;;4996484;28;20127;-83
2021/06/14 02:00:35;;;;;;;1.10;0.70;;;15.70;63.10;;;;;;4997483;28;20392;-83
2021/06/14 02:03:01;;;;;;;0.43;0.43;;;15.60;63.20;;;;;;5013445;28;20128;-83
2021/06/14 02:05:30;;;;;;;0.80;0.63;;;15.60;63.20;;;;;;4978988;28;20065;-83
2021/06/14 02:07:57;;;;;;;1.98;0.60;;;15.60;63.40;;;;;;5013269;28;20492;-83
2021/06/14 02:10:24;;;;;;;0.40;0.40;;;15.60;63.40;;;;;;4980677;28;20072;-83
2021/06/14 02:12:51;;;;;;;0.52;0.50;;;15.50;63.50;;;;;;4996692;28;20045;-83
2021/06/14 02:15:18;;;;;;;0.75;0.55;;;15.60;63.70;;;;;;4996808;28;20037;-83
2021/06/14 02:17:46;;;;;;;0.60;0.50;;;15.40;63.70;;;;;;5012548;28;20042;-83
2021/06/14 02:20:13;;;;;;;0.90;0.55;;;15.40;63.70;;;;;;4997120;28;20042;-82
2021/06/14 02:22:40;;;;;;;0.73;0.60;;;15.40;63.80;;;;;;4996859;28;20050;-83
2021/06/14 02:25:10;;;;;;;1.02;0.75;;;15.40;63.90;;;;;;4996708;28;20213;-83
2021/06/14 02:27:36;;;;;;;1.05;0.60;;;15.50;64.00;;;;;;5013386;28;20124;-83
2021/06/14 02:30:09;;;;;;;1.25;0.70;;;15.40;64.00;;;;;;4996687;28;20044;-82
2021/06/14 02:32:35;;;;;;;0.95;0.47;;;15.30;64.10;;;;;;4996732;28;20038;-82
2021/06/14 02:35:00;;;;;;;0.40;0.40;;;15.30;64.10;;;;;;5014331;28;20096;-83
2021/06/14 02:37:26;;;;;;;0.93;0.70;;;15.30;64.20;;;;;;4996607;28;20038;-83
2021/06/14 02:39:53;;;;;;;0.60;0.60;;;15.30;64.30;;;;;;5012595;28;20046;-83
2021/06/14 02:42:20;;;;;;;0.50;0.50;;;15.20;64.30;;;;;;4995120;28;20129;-83
2021/06/14 02:44:49;;;;;;;1.05;0.60;;;15.20;64.40;;;;;;5010855;28;20042;-83
2021/06/14 02:47:17;;;;;;;0.95;0.70;;;15.20;64.60;;;;;;4996392;28;20137;-83
2021/06/14 02:49:44;;;;;;;0.63;0.60;;;15.20;64.60;;;;;;4996483;28;20180;-84
2021/06/14 02:52:12;;;;;;;0.80;0.47;;;15.10;64.70;;;;;;4996274;28;20108;-83
2021/06/14 02:54:43;;;;;;;0.77;0.70;;;15.00;64.70;;;;;;5012740;28;20065;-83
2021/06/14 02:57:11;;;;;;;0.85;0.60;;;15.10;64.90;;;;;;4996194;28;20048;-83
2021/06/14 02:59:39;;;;;;;0.47;0.47;;;15.00;64.90;;;;;;4996397;28;20057;-83
2021/06/14 03:02:05;;;;;;;0.57;0.50;;;15.00;65.00;;;;;;4996406;28;20496;-83
2021/06/14 03:04:32;;;;;;;1.30;0.70;;;14.80;65.00;;;;;;4995970;28;20068;-83
2021/06/14 03:06:58;;;;;;;1.05;0.70;;;14.90;65.20;;;;;;4996430;28;20061;-83
2021/06/14 03:09:25;;;;;;;0.50;0.50;;;14.80;65.30;;;;;;5012792;28;20042;-83
2021/06/14 03:11:52;;;;;;;0.85;0.65;;;14.70;65.30;;;;;;4979909;28;20038;-83
2021/06/14 03:14:18;;;;;;;0.80;0.80;;;14.90;65.50;;;;;;4980313;28;20476;-83
2021/06/14 03:16:45;;;;;;;0.90;0.63;;;14.70;65.40;;;;;;4995754;28;21366;-82
2021/06/14 03:19:13;;;;;;;0.60;0.60;;;14.70;65.50;;;;;;5012860;28;20120;-83
2021/06/14 03:21:39;;;;;;;0.40;0.40;;;14.80;65.60;;;;;;4979720;28;20073;-83
2021/06/14 03:24:05;;;;;;;0.80;0.60;;;14.70;65.60;;;;;;4978000;28;20030;-83
2021/06/14 03:26:38;;;;;;;0.90;0.55;;;14.70;65.70;;;;;;4996036;28;20383;-83
2021/06/14 03:29:06;;;;;;;1.20;0.65;;;14.70;65.80;;;;;;4993997;28;20464;-83
2021/06/14 03:31:32;;;;;;;1.00;0.70;;;14.70;65.80;;;;;;5012595;28;20030;-82
2021/06/14 03:33:59;;;;;;;0.75;0.55;;;14.70;65.80;;;;;;4979693;28;20042;-83
2021/06/14 03:36:30;;;;;;;0.77;0.68;;;14.70;65.90;;;;;;5012202;28;20480;-82
2021/06/14 03:38:57;;;;;;;0.90;0.68;;;14.70;66.00;;;;;;4979636;28;20041;-83
2021/06/14 03:41:22;;;;;;;0.40;0.40;;;14.60;66.00;;;;;;4994076;28;20099;-84
2021/06/14 03:43:49;;;;;;;0.60;0.60;;;14.60;66.00;;;;;;4995676;28;20132;-84
2021/06/14 03:46:15;;;;;;;0.55;0.55;;;14.60;66.20;;;;;;5011147;28;20129;-83
2021/06/14 03:48:41;;;;;;;0.63;0.50;;;14.60;66.20;;;;;;4995910;28;20042;-84
2021/06/14 03:51:07;;;;;;;0.95;0.60;;;14.60;66.30;;;;;;4995549;28;20045;-83
2021/06/14 03:53:34;;;;;;;0.80;0.63;;;14.60;66.30;;;;;;4979302;28;20050;-83
2021/06/14 03:56:03;;;;;;;1.08;0.68;;;14.50;66.30;;;;;;4995368;28;20033;-83
2021/06/14 03:58:29;;;;;;;1.20;0.55;;;14.50;66.30;;;;;;5011833;28;20050;-83
2021/06/14 04:00:55;;;;;;;0.40;0.40;;;14.60;66.50;;;;;;4995181;28;20546;-84
2021/06/14 04:03:25;;;;;;;0.60;0.60;;;14.60;66.40;;;;;;4995493;28;20050;-84
2021/06/14 04:05:51;;;;;;;0.60;0.50;;;14.60;66.40;;;;;;4979745;28;20045;-84
2021/06/14 04:08:17;;;;;;;0.43;0.43;;;14.60;66.40;;;;;;4979097;28;20399;-84
2021/06/14 04:10:43;;;;;;;1.08;0.80;;;14.60;66.50;;;;;;4979391;28;20041;-84
2021/06/14 04:13:09;;;;;;;0.93;0.68;;;14.60;67.20;;;;;;4993346;28;20387;-84
2021/06/14 04:15:35;;;;;;;0.70;0.60;;;14.60;66.50;;;;;;4995452;28;20038;-84
2021/06/14 04:18:01;;;;;;;1.58;0.90;;;14.60;66.60;;;;;;4977849;28;20112;-84
2021/06/14 04:20:27;;;;;;;1.38;0.70;;;14.60;66.60;;;;;;4995407;28;20033;-84
2021/06/14 04:22:52;;;;;;;0.50;0.50;;;14.70;66.70;;;;;;5012713;28;20436;-84
2021/06/14 04:25:19;;;;;;;1.42;0.75;;;14.60;66.70;;;;;;4978940;28;20104;-84
2021/06/14 04:27:46;;;;;;;0.85;0.70;;;14.70;66.80;;;;;;4977772;28;20400;-83
2021/06/14 04:30:13;;;;;;;0.75;0.63;;;14.70;66.80;;;;;;4977044;28;20577;-84
2021/06/14 04:32:38;;;;;;;0.82;0.60;;;14.70;66.80;;;;;;4978506;28;20037;-84
2021/06/14 04:35:06;;;;;;;0.50;0.50;;;14.80;66.80;;;;;;4995012;28;20037;-84
2021/06/14 04:37:33;;;;;;;1.38;0.63;;;14.80;66.70;;;;;;5011448;28;20041;-84
2021/06/14 04:39:59;;;;;;;0.60;0.60;;;14.90;66.60;;;;;;4995041;28;20119;-84
2021/06/14 04:42:27;;;;;;;0.77;0.60;;;14.90;66.60;;;;;;5011290;28;20073;-84
2021/06/14 04:44:58;;;;;;;0.63;0.43;;;15.00;66.50;;;;;;4978774;28;20042;-84
2021/06/14 04:47:24;;;;;;;0.70;0.68;;;15.00;67.10;;;;;;4995322;28;20038;-85
2021/06/14 04:49:50;;;;;;;0.70;0.55;;;15.10;66.50;;;;;;5011400;28;20042;-85
2021/06/14 04:52:16;;;;;;;0.85;0.50;;;15.10;66.50;;;;;;4995046;28;20125;-85
2021/06/14 04:54:42;;;;;;;1.15;0.65;;;15.20;66.30;;;;;;4976690;28;20057;-85
2021/06/14 04:57:08;;;;;;;0.77;0.52;;;15.20;66.30;;;;;;5010178;28;20133;-84
2021/06/14 04:59:34;;;;;;;0.45;0.45;;;15.30;66.30;;;;;;4977935;28;20518;-76
2021/06/14 05:02:00;;;;;;;0.50;0.50;;;15.30;66.20;;;;;;5011179;28;20042;-77
2021/06/14 05:04:26;;;;;;;1.50;0.60;;;15.40;66.10;;;;;;4978320;28;20495;-76
2021/06/14 05:06:52;;;;;;;0.68;0.60;;;15.40;65.90;;;;;;5012692;28;20056;-76
2021/06/14 05:09:18;;;;;;;0.60;0.60;;;15.50;65.80;;;;;;5012681;28;20495;-77
2021/06/14 05:11:47;;;;;;;1.13;0.80;;;15.60;65.80;;;;;;5012099;28;20120;-77
2021/06/14 05:14:12;;;;;;;2.67;0.77;;;15.70;65.70;;;;;;4994249;28;20034;-77
2021/06/14 05:16:38;;;;;;;0.68;0.65;;;15.80;65.50;;;;;;4994739;28;20100;-77
2021/06/14 05:19:04;;;;;;;0.98;0.77;;;15.90;65.40;;;;;;5012287;28;20138;-77
2021/06/14 05:21:29;;;;;;;1.08;0.90;;;16.10;65.30;;;;;;5008675;28;20042;-77
2021/06/14 05:23:55;;;;;;;1.00;0.70;;;16.10;65.10;;;;;;5012079;28;20078;-78
2021/06/14 05:26:21;;;;;;;1.67;1.10;;;16.20;64.90;;;;;;5010513;28;20038;-77
2021/06/14 05:28:47;;;;;;;1.92;1.08;;;16.30;64.70;;;;;;4994315;28;20047;-78
2021/06/14 05:31:13;;;;;;;1.83;0.80;;;16.50;64.60;;;;;;4977998;28;20045;-77
2021/06/14 05:33:39;;;;;;;0.93;0.70;;;16.60;64.40;;;;;;5012321;28;20041;-77
2021/06/14 05:36:05;;;;;;;0.68;0.65;;;16.80;64.60;;;;;;5011095;28;20041;-77
2021/06/14 05:38:31;;;;;;;1.20;0.98;;;16.90;64.10;;;;;;5011802;28;20050;-78
2021/06/14 05:40:57;;;;;;;0.77;0.70;;;17.00;63.90;;;;;;5010599;28;20099;-78
2021/06/14 05:43:22;;;;;;;1.33;0.70;;;17.20;63.80;;;;;;5010701;28;20045;-78
2021/06/14 05:45:48;;;;;;;0.88;0.77;;;17.30;63.70;;;;;;4993934;28;20045;-78
2021/06/14 05:48:15;;;;;;;0.68;0.60;;;17.30;63.60;;;;;;4994035;28;20061;-77
2021/06/14 05:50:41;;;;;;;1.60;0.90;;;17.50;63.60;;;;;;5010427;28;20042;-77
2021/06/14 05:53:07;;;;;;;0.90;0.70;;;17.50;63.50;;;;;;5011571;28;20133;-77
2021/06/14 05:55:33;;;;;;;0.80;0.80;;;17.60;63.40;;;;;;4993869;28;20387;-77
2021/06/14 05:57:59;;;;;;;0.93;0.82;;;17.70;63.30;;;;;;5011445;28;20041;-78
2021/06/14 06:00:25;;;;;;;0.60;0.50;;;17.80;63.30;;;;;;5011591;28;20038;-77
2021/06/14 06:02:51;;;;;;;1.05;0.75;;;17.90;63.20;;;;;;5011254;28;20041;-77
2021/06/14 06:05:17;;;;;;;0.73;0.70;;;18.00;63.10;;;;;;5011632;28;20538;-80
2021/06/14 06:07:43;;;;;;;0.57;0.52;;;18.10;63.10;;;;;;5017907;28;20041;-80
2021/06/14 06:10:11;;;;;;;1.02;0.70;;;18.10;62.90;;;;;;5003575;28;20046;-80
2021/06/14 06:12:39;;;;;;;0.60;0.60;;;18.20;62.80;;;;;;5001572;28;20064;-80
2021/06/14 06:15:08;;;;;;;0.98;0.70;;;18.30;62.80;;;;;;4998837;28;20045;-79
2021/06/14 06:17:34;;;;;;;0.77;0.70;;;18.50;62.80;;;;;;4999633;28;20396;-80
2021/06/14 06:20:00;;;;;;;0.82;0.55;;;18.50;62.50;;;;;;5016193;28;20046;-80
2021/06/14 06:22:26;;;;;;;0.60;0.60;;;18.60;62.40;;;;;;5015845;28;20052;-80
2021/06/14 06:24:52;;;;;;;0.68;0.50;;;18.70;62.20;;;;;;5020815;28;20050;-80
2021/06/14 06:27:18;;;;;;;1.23;0.80;;;18.80;62.10;;;;;;4989373;28;20061;-81
2021/06/14 06:29:43;;;;;;;1.23;0.80;;;18.90;62.00;;;;;;5016992;28;20447;-80
2021/06/14 06:32:09;;;;;;;1.33;0.70;;;19.00;61.70;;;;;;5003396;28;20457;-80
2021/06/14 06:34:35;;;;;;;1.13;0.63;;;19.10;61.60;;;;;;5005793;28;20061;-79
2021/06/14 06:37:01;;;;;;;0.70;0.57;;;19.30;61.50;;;;;;5006269;28;20037;-80
2021/06/14 06:39:26;;;;;;;1.00;0.60;;;19.40;61.30;;;;;;5022953;28;20046;-80
2021/06/14 06:41:52;;;;;;;0.80;0.68;;;19.50;61.00;;;;;;5024761;28;20037;-80
2021/06/14 06:44:18;;;;;;;0.60;0.60;;;19.70;60.80;;;;;;5021486;28;20577;-80
2021/06/14 06:46:44;;;;;;;0.70;0.55;;;19.80;60.60;;;;;;5021814;28;20116;-80
2021/06/14 06:49:10;;;;;;;0.60;0.60;;;20.00;60.50;;;;;;5003042;28;20107;-80
2021/06/14 06:51:36;;;;;;;0.98;0.88;;;20.10;60.30;;;;;;5019914;28;20038;-80
2021/06/14 06:54:16;;;;;;;0.55;0.55;;;20.30;60.20;;;;;;5019190;28;20105;-80
2021/06/14 06:56:45;;;;;;;0.75;0.75;;;20.40;60.00;;;;;;5004364;28;20498;-81
2021/06/14 06:59:11;;;;;;;0.55;0.55;;;20.40;59.90;;;;;;4995687;28;20088;-80
2021/06/14 07:01:38;;;;;;;0.82;0.55;;;20.70;59.90;;;;;;5014009;28;20068;-79
2021/06/14 07:04:04;;;;;;;1.50;0.98;;;20.80;59.70;;;;;;5013810;28;20042;-78
2021/06/14 07:06:30;;;;;;;1.30;0.65;;;21.00;59.50;;;;;;5014713;28;20048;-78
2021/06/14 07:08:57;;;;;;;0.63;0.63;;;21.00;59.30;;;;;;4996089;28;20050;-77
2021/06/14 07:11:25;;;;;;;0.90;0.68;;;21.20;59.20;;;;;;4995930;28;20034;-77
2021/06/14 07:13:51;;;;;;;0.70;0.63;;;21.30;59.10;;;;;;5012323;28;20053;-77
2021/06/14 07:16:17;;;;;;;1.15;0.60;;;21.60;59.00;;;;;;4996216;28;20042;-77
2021/06/14 07:18:43;;;;;;;1.50;0.75;;;21.80;58.70;;;;;;4996762;28;20041;-80
2021/06/14 07:21:09;;;;;;;0.93;0.90;;;22.00;58.40;;;;;;4995778;28;20045;-78
2021/06/14 07:23:34;;;;;;;0.82;0.60;;;22.20;58.20;;;;;;4997101;28;20157;-80
2021/06/14 07:26:00;;;;;;;0.82;0.80;;;22.40;58.10;;;;;;5015139;28;20042;-79
2021/06/14 07:28:26;;;;;;;2.50;0.90;;;22.60;58.00;;;;;;5014083;28;20042;-78
2021/06/14 07:30:51;;;;;;;2.80;1.05;;;22.80;57.70;;;;;;5017251;28;20546;-78
2021/06/14 07:33:17;;;;;;;0.93;0.70;;;22.90;57.70;;;;;;4997997;28;20041;-78
2021/06/14 07:35:43;;;;;;;1.35;0.70;;;23.00;57.70;;;;;;5019785;28;20092;-80
2021/06/14 07:38:15;;;;;;;0.52;0.52;;;23.10;57.70;;;;;;4969671;28;20035;-80
2021/06/14 07:40:42;;;;;;;1.00;0.90;;;23.10;57.60;;;;;;4940540;28;20046;-79
2021/06/14 07:43:11;;;;;;;1.02;0.82;;;23.30;57.80;;;;;;4960618;28;20034;-79
2021/06/14 07:45:38;;;;;;;1.02;0.80;;;23.50;57.60;;;;;;4961003;28;20086;-79
2021/06/14 07:48:03;;;;;;;1.15;0.88;;;23.60;57.50;;;;;;4976897;28;20477;-78
2021/06/14 07:50:29;;;;;;;1.10;0.90;;;23.80;57.50;;;;;;4960437;28;20125;-79
2021/06/14 07:52:55;;;;;;;1.13;0.93;;;23.90;57.40;;;;;;4960887;28;20039;-79
2021/06/14 07:55:21;;;;;;;0.93;0.68;;;24.00;57.30;;;;;;4975990;28;20042;-79
2021/06/14 07:57:47;;;;;;;0.57;0.50;;;24.20;57.20;;;;;;4956109;28;20082;-79
2021/06/14 08:00:13;;;;;;;0.80;0.70;;;24.30;57.00;;;;;;4945823;28;20046;-79
2021/06/14 08:02:40;;;;;;;1.15;0.68;;;24.60;56.80;;;;;;4941300;28;20117;-79
2021/06/14 08:05:08;;;;;;;0.80;0.80;;;24.60;56.80;;;;;;4941724;28;20078;-80
2021/06/14 08:07:34;;;;;;;1.10;0.85;;;24.80;56.80;;;;;;4959585;28;20098;-80
2021/06/14 08:10:03;;;;;;;1.52;1.02;;;25.00;56.50;;;;;;4974755;28;20132;-81
2021/06/14 08:12:33;;;;;;;1.05;0.90;;;25.00;56.30;;;;;;4993275;28;20130;-78
2021/06/14 08:15:00;;;;;;;1.05;0.80;;;24.90;56.40;;;;;;4962277;28;20038;-78
2021/06/14 08:17:35;;;;;;;1.00;0.80;;;25.20;56.60;;;;;;4943052;28;20076;-77
2021/06/14 08:20:12;;;;;;;0.98;0.75;;;25.40;56.30;;;;;;4939298;28;20046;-77
2021/06/14 08:25:03;;;;;;;0.85;0.80;;;25.60;56.20;;;;;;4941458;28;20059;-78
2021/06/14 08:25:24;;;;;;;1.10;0.75;;;25.70;56.60;;;;;;4949524;28;20107;-76
2021/06/14 08:27:49;;;;;;;2.05;0.65;;;25.80;55.80;;;;;;4956472;28;20121;-77
2021/06/14 08:30:18;;;;;;;1.40;0.90;;;25.80;55.70;;;;;;4957145;28;20038;-77
2021/06/14 08:32:45;;;;;;;0.80;0.80;;;25.90;55.90;;;;;;4973114;28;20035;-77
2021/06/14 08:35:14;;;;;;;0.75;0.75;;;26.10;55.80;;;;;;4955926;28;20066;-75
2021/06/14 08:37:41;;;;;;;0.70;0.70;;;26.30;55.50;;;;;;4959259;28;20551;-77
2021/06/14 08:40:08;;;;;;;1.10;1.00;;;26.30;55.30;;;;;;4974694;28;20031;-77
2021/06/14 08:42:34;;;;;;;0.80;0.80;;;26.50;55.40;;;;;;4958971;28;20048;-76
2021/06/14 08:45:00;;;;;;;0.85;0.75;;;26.50;55.10;;;;;;4974560;28;20049;-76
2021/06/14 08:47:29;;;;;;;0.80;0.75;;;26.60;55.10;;;;;;4991205;28;20046;-77
2021/06/14 08:49:55;;;;;;;1.00;0.90;;;26.80;55.00;;;;;;4996283;28;20503;-77
2021/06/14 08:52:22;;;;;;;0.82;0.80;;;27.00;54.80;;;;;;4995264;28;20034;-76
2021/06/14 08:54:48;;;;;;;1.08;0.73;;;27.20;54.60;;;;;;4995192;28;20117;-74
2021/06/14 08:57:14;;;;;;;0.80;0.68;;;27.40;54.40;;;;;;4995179;28;20095;-76
2021/06/14 08:59:41;;;;;;;2.30;1.08;;;27.30;54.20;;;;;;4994741;28;20046;-77
2021/06/14 09:02:07;;;;;;;0.88;0.80;;;27.40;53.90;;;;;;4994331;28;20133;-78
2021/06/14 09:04:34;;;;;;;1.35;0.95;;;27.50;53.80;;;;;;4995075;28;20088;-77
2021/06/14 09:07:01;;;;;;;1.27;1.00;;;27.60;53.70;;;;;;4978265;28;20046;-77
2021/06/14 09:09:30;;;;;;;1.15;0.85;;;27.50;53.30;;;;;;5011347;28;20461;-76
2021/06/14 09:11:56;;;;;;;0.77;0.77;;;27.40;53.20;;;;;;5010743;28;20034;-77
2021/06/14 09:14:27;;;;;;;1.48;0.90;;;27.40;53.30;;;;;;5012499;28;20050;-76
2021/06/14 09:16:57;;;;;;;1.58;0.98;;;27.50;53.20;;;;;;5013172;28;20112;-77
2021/06/14 09:19:25;;;;;;;;;;;27.60;53.10;;;;;;5013597;28;20050;-76
2021/06/14 09:21:55;;;;;;;1.92;0.95;;;27.60;53.20;;;;;;4994525;28;19906;-76
2021/06/14 09:24:22;;;;;;;1.90;1.05;;;27.60;53.10;;;;;;4994389;28;20038;-75
2021/06/14 09:26:48;;;;;;;1.50;0.90;;;27.60;52.80;;;;;;4994001;28;20036;-76
2021/06/14 09:29:24;;;;;;;1.55;1.10;;;27.60;52.70;;;;;;5009929;28;20038;-76
2021/06/14 09:31:58;;;;;;;1.10;1.00;;;27.60;52.60;;;;;;4996037;28;20129;-77
2021/06/14 09:34:34;;;;;;;1.10;1.00;;;27.60;52.60;;;;;;4994316;28;20038;-76
2021/06/14 09:37:02;;;;;;;1.58;0.90;;;27.70;52.40;;;;;;5008445;28;20050;-75
2021/06/14 09:39:36;;;;;;;1.67;0.90;;;27.80;52.30;;;;;;5011890;28;20038;-76
2021/06/14 09:42:13;;;;;;;1.35;0.95;;;27.90;52.00;;;;;;5008759;28;20069;-75
2021/06/14 09:44:39;;;;;;;1.40;1.10;;;27.90;51.70;;;;;;5004108;28;20037;-76
2021/06/14 09:47:08;;;;;;;1.30;1.00;;;28.00;51.80;;;;;;5017298;28;20069;-75
2021/06/14 09:49:35;;;;;;;1.33;1.10;;;28.10;51.40;;;;;;5029667;28;20120;-75
2021/06/14 09:52:01;;;;;;;1.42;1.15;;;28.10;51.20;;;;;;5027823;28;20049;-75
2021/06/14 09:54:31;;;;;;;1.85;1.15;;;28.10;51.20;;;;;;5029636;28;20052;-75
2021/06/14 09:56:58;;;;;;;1.50;1.17;;;28.20;51.20;;;;;;5023059;28;20077;-75
2021/06/14 09:59:29;;;;;;;1.58;1.10;;;28.30;51.00;;;;;;5033881;28;20128;-75
2021/06/14 10:02:10;;;;;;;1.50;1.08;;;28.30;50.90;;;;;;5009502;28;20058;-75
2021/06/14 10:04:36;;;;;;;1.83;0.88;;;28.40;50.90;;;;;;5023315;28;20033;-75
2021/06/14 10:07:11;;;;;;;1.20;1.00;;;28.50;50.80;;;;;;5013311;28;20042;-76
2021/06/14 10:09:40;;;;;;;1.80;1.30;;;28.60;50.60;;;;;;5024160;28;20088;-74
2021/06/14 10:12:17;;;;;;;1.38;1.05;;;28.80;50.50;;;;;;5025101;28;20088;-76
2021/06/14 10:14:54;;;;;;;2.17;1.27;;;28.80;50.00;;;;;;5024238;28;20551;-74
2021/06/14 10:17:38;;;;;;;1.70;1.30;;;28.90;50.40;;;;;;5023150;28;20065;-80
2021/06/14 10:20:13;;;;;;;2.60;1.50;;;28.90;49.70;;;;;;5005273;28;20104;-76
2021/06/14 10:22:40;;;;;;;4.20;1.30;;;28.60;49.60;;;;;;5024270;28;20030;-77
2021/06/14 10:25:08;;;;;;;1.00;1.00;;;28.50;49.70;;;;;;5027922;28;20093;-75
2021/06/14 10:27:34;;;;;;;1.33;1.10;;;28.30;49.90;;;;;;5026986;28;20077;-75
2021/06/14 10:30:00;;;;;;;1.60;0.95;;;28.40;49.80;;;;;;5007038;28;20054;-75
2021/06/14 10:32:27;;;;;;;1.10;1.00;;;28.50;49.70;;;;;;5013697;28;20539;-75
2021/06/14 10:34:54;;;;;;;1.00;0.90;;;28.60;49.60;;;;;;5014255;28;20480;-76
2021/06/14 10:37:23;;;;;;;1.85;1.00;;;28.80;49.40;;;;;;5000430;28;20381;-76
2021/06/14 10:39:53;;;;;;;2.38;1.35;;;28.80;49.10;;;;;;4997484;28;20049;-75
2021/06/14 10:42:18;;;;;;;1.20;1.10;;;28.80;49.00;;;;;;4997599;28;20049;-73
2021/06/14 10:44:48;;;;;;;1.48;1.00;;;28.90;49.00;;;;;;4998144;28;20038;-74
2021/06/14 10:47:15;;;;;;;1.15;1.00;;;28.90;48.70;;;;;;5004544;28;20046;-77
2021/06/14 10:49:41;;;;;;;0.98;0.90;;;28.90;48.50;;;;;;5018983;28;20046;-76
2021/06/14 10:52:07;;;;;;;1.38;1.20;;;28.90;48.50;;;;;;5012621;28;20045;-77
2021/06/14 10:54:43;;;;;;;2.42;1.23;;;28.90;48.30;;;;;;5018246;28;20416;-77
2021/06/14 10:57:10;;;;;;;1.10;1.00;;;28.60;48.40;;;;;;5016051;28;20042;-76
2021/06/14 10:59:41;;;;;;;1.20;0.98;;;28.50;48.60;;;;;;5018782;28;20073;-76
2021/06/14 11:02:09;;;;;;;1.58;1.10;;;28.70;48.40;;;;;;5020756;28;20040;-76
2021/06/14 11:04:35;;;;;;;1.45;1.10;;;28.70;48.20;;;;;;5019180;28;20038;-77
2021/06/14 11:07:01;;;;;;;1.33;1.10;;;28.80;48.00;;;;;;5021422;28;20049;-77
2021/06/14 11:09:44;;;;;;;1.27;1.00;;;28.80;47.90;;;;;;5021627;28;20476;-77
2021/06/14 11:12:23;;;;;;;3.22;1.15;;;28.80;47.90;;;;;;5018366;28;20037;-77
2021/06/14 11:14:49;;;;;;;1.92;1.05;;;28.80;47.80;;;;;;5021984;28;20037;-77
2021/06/14 11:17:27;;;;;;;1.08;0.90;;;28.80;47.80;;;;;;5005670;28;20052;-77
2021/06/14 11:20:12;;;;;;;0.90;0.85;;;28.90;47.60;;;;;;5023976;28;20093;-76
2021/06/14 11:22:40;;;;;;;1.95;1.00;;;29.00;47.40;;;;;;5020245;28;20056;-78
2021/06/14 11:25:27;;;;;;;0.98;0.98;;;29.10;47.40;;;;;;5001010;28;20474;-77
2021/06/14 11:27:54;;;;;;;1.35;0.90;;;29.20;47.40;;;;;;4998154;28;20539;-76
2021/06/14 11:30:29;;;;;;;1.15;1.02;;;29.20;47.40;;;;;;5023814;28;20097;-76
2021/06/14 11:32:56;;;;;;;0.93;0.90;;;29.20;47.30;;;;;;5024824;28;20038;-77
2021/06/14 11:35:27;;;;;;;1.25;1.10;;;29.30;47.20;;;;;;5001567;28;20058;-74
2021/06/14 11:37:54;;;;;;;1.63;1.20;;;29.30;47.20;;;;;;5017902;28;20050;-74
2021/06/14 11:40:30;;;;;;;2.42;1.10;;;29.30;47.00;;;;;;5019993;28;20052;-74
2021/06/14 11:43:08;;;;;;;1.30;1.08;;;29.20;47.10;;;;;;5024064;28;20046;-74
2021/06/14 11:45:38;;;;;;;1.10;1.00;;;29.20;47.30;;;;;;5018391;28;20069;-75
2021/06/14 11:48:16;;;;;;;2.42;1.58;;;29.30;47.10;;;;;;5024912;28;20034;-74
2021/06/14 11:50:42;;;;;;;1.10;0.98;;;29.30;46.90;;;;;;5017925;28;20038;-74
2021/06/14 11:53:07;;;;;;;1.25;1.10;;;29.30;47.00;;;;;;5023045;28;20102;-73
2021/06/14 11:55:36;;;;;;;1.10;1.00;;;29.20;47.10;;;;;;4996478;28;20037;-74
2021/06/14 11:58:06;;;;;;;2.97;1.15;;;29.20;47.10;;;;;;5012477;28;20125;-74
2021/06/14 12:00:35;;;;;;;2.30;1.15;;;29.20;47.10;;;;;;5002498;28;20076;-76
2021/06/14 12:03:14;;;;;;;1.17;1.00;;;29.20;47.10;;;;;;5019582;28;20104;-75
2021/06/14 12:05:39;;;;;;;1.25;1.13;;;29.10;47.20;;;;;;5017350;28;20096;-75
2021/06/14 12:08:08;;;;;;;1.05;0.90;;;29.00;47.20;;;;;;5017609;28;20427;-75
2021/06/14 12:10:34;;;;;;;1.60;1.10;;;29.20;47.30;;;;;;5019137;28;20125;-75
2021/06/14 12:13:04;;;;;;;1.13;0.95;;;29.20;47.20;;;;;;5020229;28;20034;-75
2021/06/14 12:15:30;;;;;;;0.82;0.82;;;29.20;47.10;;;;;;5021372;28;20049;-75
2021/06/14 12:17:56;;;;;;;0.98;0.90;;;29.30;47.20;;;;;;5015332;28;20435;-76
2021/06/14 12:20:25;;;;;;;1.15;1.02;;;29.30;47.20;;;;;;5016587;28;20054;-76
2021/06/14 12:23:09;;;;;;;1.48;1.02;;;29.30;47.20;;;;;;4995341;28;20119;-76
2021/06/14 12:25:39;;;;;;;1.30;1.00;;;29.30;47.00;;;;;;4994124;28;20048;-75
2021/06/14 12:28:08;;;;;;;1.20;1.00;;;29.20;47.10;;;;;;5011261;28;20053;-76
2021/06/14 12:30:34;;;;;;;1.35;1.00;;;29.10;47.00;;;;;;4994052;28;20057;-75
2021/06/14 12:33:01;;;;;;;1.38;0.95;;;29.10;47.10;;;;;;5012916;28;20038;-75
2021/06/14 12:35:27;;;;;;;1.35;0.98;;;29.10;47.10;;;;;;5018319;28;20046;-75
2021/06/14 12:37:54;;;;;;;0.88;0.77;;;29.10;47.10;;;;;;5019513;28;20124;-74
2021/06/14 12:40:23;;;;;;;1.05;0.80;;;29.00;47.10;;;;;;5004310;28;20045;-76
2021/06/14 12:43:04;;;;;;;1.15;0.85;;;29.00;47.20;;;;;;5017766;28;20038;-75
2021/06/14 12:45:30;;;;;;;2.40;0.90;;;28.90;47.20;;;;;;5000195;28;20030;-79
2021/06/14 12:47:59;;;;;;;1.52;0.95;;;28.90;47.10;;;;;;5002001;28;20046;-77
2021/06/14 12:50:28;;;;;;;1.33;1.00;;;29.00;46.90;;;;;;5019155;28;20030;-77
2021/06/14 12:52:56;;;;;;;0.88;0.73;;;29.00;46.70;;;;;;5023466;28;20036;-77